Clinton, OK (73601)

12:38 AM CST on February 08, 2016 (GMT -0600)
Clinton Municipal | | Change Station
CLOSE
Current Station
Airport
Location: Clinton,
Elevation: 1614 ft
Nearby Weather Stations

Elev 1614 ft 35.54 °N, 98.93 °W | Updated 23 minutes ago

Overcast
Overcast
41 °F
Feels Like 35 °F
N
9
Wind Variable Wind from WNW

Today
High -- | Low -- °F
--% Chance of Precip.
Yesterday
High -- | Low -- °F
Precip. -- in
Pressure 30.35 in
Visibility 10.0 miles
Clouds Overcast 10000 ft
Windchill 35 °F
Dew Point 12 °F
Humidity 31%
Rainfall 0.00 in
Snow Depth Not available.
7:30 AM 6:10 PM
Waning Crescent, 0% visible
METAR KCLK 080615Z AUTO 30008KT 10SM OVC100 05/M11 A3035 RMK AO2
Pressure 30.35 in
Visibility 10.0 miles
Clouds Overcast 10000 ft
Windchill 35 °F
Dew Point 12 °F
Humidity 31%
Rainfall 0.00 in
Snow Depth Not available.
7:30 AM 6:10 PM
Waning Crescent, 0% visible
METAR KCLK 080615Z AUTO 30008KT 10SM OVC100 05/M11 A3035 RMK AO2

10-Day Weather Forecast

Almanac

Astronomy

Feb. 08, 2016 Rise Set
Actual Time
Civil Twilight
Nautical Twilight
Astronomical Twilight
Moon
Length of Visible Light
Length of Day
Tomorrow will be .
, % of the Moon is Illuminated

Today's Extremes

State Highs State Lows

Community

WunderPhotos

Upload Photos

1,891,395 photos uploaded!

WunderBlog® & News

Nearby

Air Quality

  Air Quality AQ Index Pollutant
Not available.

Snow Depth

Station Depth Elevation

Earthquake Activity

City Distance Mag. Time & Date
Minimum magnitude displayed is 2.5.

Coastal Water Temperatures

Place Temperature

Stations

Nearby Weather Stations

Station Location Temp. Windchill Dew Point Humidity Wind Precip. Elev Updated Type
                   

Watches & Warnings

There are currently no watches in effect.